Federal Oshima — VRVY8 — position and weather

sailwx.info

Track history (hours):
 
Tides and Currents Weather Stations Pressure Air Temp Water Temp Dewpoint Dewpoint Depression Visibility Wind Speed Wind Dir Waves Ship Positions

Federal Oshima

Last reported at 2014-Nov-09 23:33 UTC. Time now 2014-Nov-27 08:19 UTC.
Position N 44°00' W 076°31'.
Warning: this ship's position is 17 days out of date.

Length 200 m; draft 8.1 m.

Type: Cargo ship. MMSI: 477675000.

Date/timePositionNaut miles runAvg speedWind from/ knotsBaromVisibWave heightAir tempDewpointWater temp
2014-Nov-09 23:33N 44°00' W 076°31'1111.6
2014-Nov-09 22:33N 44°09' W 076°20'1010.0
2014-Nov-09 21:33N 44°14' W 076°08'109 7.3
2014-Nov-09 06:33N 45°14' W 074°00'5 5.4
2014-Nov-09 05:33N 45°18' W 073°56'1 0.9
2014-Nov-09 04:33N 45°19' W 073°55'1 1.5
2014-Nov-09 03:33N 45°20' W 073°54'8 8.5
2014-Nov-09 02:33N 45°24' W 073°43'6 5.5
2014-Nov-09 01:33N 45°24' W 073°36'2 1.6
2014-Nov-09 00:33N 45°24' W 073°33'4 4.4
2014-Nov-08 23:33N 45°28' W 073°30'2 1.7
2014-Nov-08 22:33N 45°30' W 073°31'5 4.6
2014-Nov-08 21:33N 45°35' W 073°30'8 7.9
2014-Nov-08 20:33N 45°42' W 073°27'10 9.6
2014-Nov-08 19:33N 45°50' W 073°18'10 9.5
2014-Nov-08 18:33N 45°58' W 073°12'9 8.5
2014-Nov-08 17:33N 46°04' W 073°03'1010.2
2014-Nov-08 16:33N 46°12' W 072°53'10 9.8
2014-Nov-08 15:33N 46°16' W 072°40'8 8.4
2014-Nov-08 14:33N 46°21' W 072°31'1010.0
2014-Nov-08 13:33N 46°26' W 072°19'10 9.7
2014-Nov-08 12:33N 46°33' W 072°09'  
2014-Nov-04 11:12N 41°26' W 068°43'3512.7
2014-Nov-04 08:26N 40°51' W 068°52'1112.5
2014-Nov-04 07:33N 40°41' W 068°50'1711.5
2014-Nov-04 06:03N 40°24' W 068°58'2710.7
2014-Nov-04 03:33N 40°00' W 069°13'1312.7
2014-Nov-04 02:33N 39°56' W 069°29'3812.4
2014-Nov-03 23:28N 39°43' W 070°16'3511.9
2014-Nov-03 20:30N 39°36' W 071°00'1512.4
2014-Nov-03 19:17N 39°33' W 071°20'212.8
2014-Nov-03 19:08N 39°33' W 071°22'712.7
2014-Nov-03 18:33N 39°31' W 071°31'512.7
2014-Nov-03 18:08N 39°30' W 071°38'412.8
2014-Nov-03 17:50N 39°29' W 071°43'512.7
2014-Nov-03 17:28N 39°28' W 071°49'1212.7
2014-Nov-03 16:31N 39°27' W 072°04'3911.8
2014-Nov-03 13:13N 39°29' W 072°55'2110.2
2014-Nov-03 11:06N 39°14' W 073°15'910.8
2014-Nov-03 10:17N 39°09' W 073°25'149 5.2
2014-Nov-02 05:26N 37°58' W 076°12'1213.3
2014-Nov-02 04:33N 38°10' W 076°14'4512.9
2014-Nov-02 01:04N 38°54' W 076°24'713.5
2014-Nov-02 00:33N 39°01' W 076°22'1211.8
2014-Nov-01 23:34N 39°12' W 076°29'5 5.2
2014-Nov-01 22:34N 39°15' W 076°34'0 0.0
2014-Nov-01 21:32N 39°15' W 076°34'0 0.0
2014-Nov-01 20:32N 39°15' W 076°34'0 0.0
2014-Nov-01 19:32N 39°15' W 076°34'0 0.0
2014-Nov-01 18:32N 39°15' W 076°34'0 0.0
2014-Nov-01 17:32N 39°15' W 076°34'0 0.0
2014-Nov-01 16:32N 39°15' W 076°34'0 0.0
2014-Nov-01 15:32N 39°15' W 076°34'0 0.0
2014-Nov-01 14:32N 39°15' W 076°34'0 0.0
2014-Nov-01 13:32N 39°15' W 076°34'0 0.0
2014-Nov-01 12:32N 39°15' W 076°34'0 0.0
2014-Nov-01 11:32N 39°15' W 076°34'0 0.0
2014-Nov-01 10:32N 39°15' W 076°34'0 0.0
2014-Nov-01 09:32N 39°15' W 076°34'0 0.0
2014-Nov-01 08:32N 39°15' W 076°34'0 0.0
2014-Nov-01 07:32N 39°15' W 076°34'0 0.0
2014-Nov-01 06:32N 39°15' W 076°34'0 0.0
2014-Nov-01 05:32N 39°15' W 076°34'0 0.0
2014-Nov-01 04:32N 39°15' W 076°34'0 0.0
2014-Nov-01 03:33N 39°15' W 076°34'0 0.0
2014-Nov-01 02:33N 39°15' W 076°34'0 0.0
2014-Nov-01 01:33N 39°15' W 076°34'0 0.0
2014-Nov-01 00:33N 39°15' W 076°34'0 0.0
2014-Oct-31 23:33N 39°15' W 076°34'0 0.0
2014-Oct-31 22:33N 39°15' W 076°34'0 0.0
2014-Oct-31 21:33N 39°15' W 076°34'0 0.0
2014-Oct-31 20:33N 39°15' W 076°34'0 0.0
2014-Oct-31 19:33N 39°15' W 076°34'0 0.0
2014-Oct-31 18:33N 39°15' W 076°34'0 0.0
2014-Oct-31 17:33N 39°15' W 076°34'0 0.0
2014-Oct-31 16:33N 39°15' W 076°34'0 0.0
2014-Oct-31 15:33N 39°15' W 076°34'0 0.0
2014-Oct-31 14:33N 39°15' W 076°34'0 0.0
2014-Oct-31 13:33N 39°15' W 076°34'0 0.0
2014-Oct-31 12:33N 39°15' W 076°34'0 0.0
2014-Oct-31 11:33N 39°15' W 076°34'0 0.0
2014-Oct-31 10:33N 39°15' W 076°34'0 0.0
2014-Oct-31 09:33N 39°15' W 076°34'0 0.0
2014-Oct-31 08:33N 39°15' W 076°34'0 0.0
2014-Oct-31 07:33N 39°15' W 076°34'0 0.0
2014-Oct-31 06:33N 39°15' W 076°34'0 0.0
2014-Oct-31 05:34N 39°15' W 076°34'0 0.0
2014-Oct-31 04:33N 39°15' W 076°34'0 0.0
2014-Oct-31 03:33N 39°15' W 076°34'1 0.9
2014-Oct-31 02:33N 39°16' W 076°34'1 0.5
2014-Oct-31 01:31N 39°16' W 076°35'0 0.0
2014-Oct-31 00:31N 39°16' W 076°35'  
Track history (hours):
 
Tides and Currents Weather Stations Pressure Air Temp Water Temp Dewpoint Dewpoint Depression Visibility Wind Speed Wind Dir Waves Ship Positions

Federal Oshima

Last reported at 2014-Nov-09 23:33 UTC. Time now 2014-Nov-27 08:19 UTC.
Position N 44°00' W 076°31'.
Warning: this ship's position is 17 days out of date.

Length 200 m; draft 8.1 m.

Type: Cargo ship. MMSI: 477675000.

Date/timePositionNaut miles runAvg speedWind from/ knotsBaromVisibWave heightAir tempDewpointWater temp
2014-Nov-09 23:33N 44°00' W 076°31'1111.6
2014-Nov-09 22:33N 44°09' W 076°20'1010.0
2014-Nov-09 21:33N 44°14' W 076°08'109 7.3
2014-Nov-09 06:33N 45°14' W 074°00'5 5.4
2014-Nov-09 05:33N 45°18' W 073°56'1 0.9
2014-Nov-09 04:33N 45°19' W 073°55'1 1.5
2014-Nov-09 03:33N 45°20' W 073°54'8 8.5
2014-Nov-09 02:33N 45°24' W 073°43'6 5.5
2014-Nov-09 01:33N 45°24' W 073°36'2 1.6
2014-Nov-09 00:33N 45°24' W 073°33'4 4.4
2014-Nov-08 23:33N 45°28' W 073°30'2 1.7
2014-Nov-08 22:33N 45°30' W 073°31'5 4.6
2014-Nov-08 21:33N 45°35' W 073°30'8 7.9
2014-Nov-08 20:33N 45°42' W 073°27'10 9.6
2014-Nov-08 19:33N 45°50' W 073°18'10 9.5
2014-Nov-08 18:33N 45°58' W 073°12'9 8.5
2014-Nov-08 17:33N 46°04' W 073°03'1010.2
2014-Nov-08 16:33N 46°12' W 072°53'10 9.8
2014-Nov-08 15:33N 46°16' W 072°40'8 8.4
2014-Nov-08 14:33N 46°21' W 072°31'1010.0
2014-Nov-08 13:33N 46°26' W 072°19'10 9.7
2014-Nov-08 12:33N 46°33' W 072°09'  
2014-Nov-04 11:12N 41°26' W 068°43'3512.7
2014-Nov-04 08:26N 40°51' W 068°52'1112.5
2014-Nov-04 07:33N 40°41' W 068°50'1711.5
2014-Nov-04 06:03N 40°24' W 068°58'2710.7
2014-Nov-04 03:33N 40°00' W 069°13'1312.7
2014-Nov-04 02:33N 39°56' W 069°29'3812.4
2014-Nov-03 23:28N 39°43' W 070°16'3511.9
2014-Nov-03 20:30N 39°36' W 071°00'1512.4
2014-Nov-03 19:17N 39°33' W 071°20'212.8
2014-Nov-03 19:08N 39°33' W 071°22'712.7
2014-Nov-03 18:33N 39°31' W 071°31'512.7
2014-Nov-03 18:08N 39°30' W 071°38'412.8
2014-Nov-03 17:50N 39°29' W 071°43'512.7
2014-Nov-03 17:28N 39°28' W 071°49'1212.7
2014-Nov-03 16:31N 39°27' W 072°04'3911.8
2014-Nov-03 13:13N 39°29' W 072°55'2110.2
2014-Nov-03 11:06N 39°14' W 073°15'910.8
2014-Nov-03 10:17N 39°09' W 073°25'149 5.2
2014-Nov-02 05:26N 37°58' W 076°12'1213.3
2014-Nov-02 04:33N 38°10' W 076°14'4512.9
2014-Nov-02 01:04N 38°54' W 076°24'713.5
2014-Nov-02 00:33N 39°01' W 076°22'1211.8
2014-Nov-01 23:34N 39°12' W 076°29'5 5.2
2014-Nov-01 22:34N 39°15' W 076°34'0 0.0
2014-Nov-01 21:32N 39°15' W 076°34'0 0.0
2014-Nov-01 20:32N 39°15' W 076°34'0 0.0
2014-Nov-01 19:32N 39°15' W 076°34'0 0.0
2014-Nov-01 18:32N 39°15' W 076°34'0 0.0
2014-Nov-01 17:32N 39°15' W 076°34'0 0.0
2014-Nov-01 16:32N 39°15' W 076°34'0 0.0
2014-Nov-01 15:32N 39°15' W 076°34'0 0.0
2014-Nov-01 14:32N 39°15' W 076°34'0 0.0
2014-Nov-01 13:32N 39°15' W 076°34'0 0.0
2014-Nov-01 12:32N 39°15' W 076°34'0 0.0
2014-Nov-01 11:32N 39°15' W 076°34'0 0.0
2014-Nov-01 10:32N 39°15' W 076°34'0 0.0
2014-Nov-01 09:32N 39°15' W 076°34'0 0.0
2014-Nov-01 08:32N 39°15' W 076°34'0 0.0
2014-Nov-01 07:32N 39°15' W 076°34'0 0.0
2014-Nov-01 06:32N 39°15' W 076°34'0 0.0
2014-Nov-01 05:32N 39°15' W 076°34'0 0.0
2014-Nov-01 04:32N 39°15' W 076°34'0 0.0
2014-Nov-01 03:33N 39°15' W 076°34'0 0.0
2014-Nov-01 02:33N 39°15' W 076°34'0 0.0
2014-Nov-01 01:33N 39°15' W 076°34'0 0.0
2014-Nov-01 00:33N 39°15' W 076°34'0 0.0
2014-Oct-31 23:33N 39°15' W 076°34'0 0.0
2014-Oct-31 22:33N 39°15' W 076°34'0 0.0
2014-Oct-31 21:33N 39°15' W 076°34'0 0.0
2014-Oct-31 20:33N 39°15' W 076°34'0 0.0
2014-Oct-31 19:33N 39°15' W 076°34'0 0.0
2014-Oct-31 18:33N 39°15' W 076°34'0 0.0
2014-Oct-31 17:33N 39°15' W 076°34'0 0.0
2014-Oct-31 16:33N 39°15' W 076°34'0 0.0
2014-Oct-31 15:33N 39°15' W 076°34'0 0.0
2014-Oct-31 14:33N 39°15' W 076°34'0 0.0
2014-Oct-31 13:33N 39°15' W 076°34'0 0.0
2014-Oct-31 12:33N 39°15' W 076°34'0 0.0
2014-Oct-31 11:33N 39°15' W 076°34'0 0.0
2014-Oct-31 10:33N 39°15' W 076°34'0 0.0
2014-Oct-31 09:33N 39°15' W 076°34'0 0.0
2014-Oct-31 08:33N 39°15' W 076°34'0 0.0
2014-Oct-31 07:33N 39°15' W 076°34'0 0.0
2014-Oct-31 06:33N 39°15' W 076°34'0 0.0
2014-Oct-31 05:34N 39°15' W 076°34'0 0.0
2014-Oct-31 04:33N 39°15' W 076°34'0 0.0
2014-Oct-31 03:33N 39°15' W 076°34'1 0.9
2014-Oct-31 02:33N 39°16' W 076°34'1 0.5
2014-Oct-31 01:31N 39°16' W 076°35'0 0.0
2014-Oct-31 00:31N 39°16' W 076°35'  

Dump ship's entire track history